Vanity Corner, Arkansas
Current Conditions -  °F | °C
As of 10:56 AM on Sunday 23 Nov 2014 (Local Time) from KSRC Reporting Station
Light Rain Light Rain  
Wind Chill: 59°   Ceiling: 400
Heat Index: 59°   Visibility: 8mi
Dew Point: 58°   Wind: 9mph
Humidity: 96%   Direction: 160°SSE
Pressure: 29.53"   Gusts: NA
Location:  35.2662°N, 91.8491°W
Report Text: KSRC 231656Z AUTO 16008KT 8SM -RA OVC004 15/14 A2953 RMK AO2 SLP008 P0008 T01500144 TSNO
Loading
Personal Weather Stations






























Interactive Weather Map New forecast layout! Learn more

10-Day Weather Forecast

Advertisements
Track Severe Weather on mobile